createdAt,value
2022-11-27T00:00:14.245Z,99304.00
2022-11-27T00:02:41.996Z,99306.00
2022-11-27T00:05:10.417Z,99294.00
2022-11-27T00:07:38.132Z,99293.00
2022-11-27T00:10:08.627Z,99290.00
2022-11-27T00:12:36.864Z,99289.00
2022-11-27T00:15:05.181Z,99278.00
2022-11-27T00:17:32.855Z,99272.00
2022-11-27T00:20:00.541Z,99268.00
2022-11-27T00:22:28.265Z,99251.00
2022-11-27T00:24:55.943Z,99255.00
2022-11-27T00:27:24.945Z,99254.00
2022-11-27T00:29:52.624Z,99254.00
2022-11-27T00:32:20.293Z,99242.00
2022-11-27T00:34:47.970Z,99250.00
2022-11-27T00:37:15.853Z,99242.00
2022-11-27T00:39:43.499Z,99235.00
2022-11-27T00:42:11.208Z,99238.00
2022-11-27T00:44:40.430Z,99237.00
2022-11-27T00:47:08.292Z,99223.00
2022-11-27T00:49:36.011Z,99228.00
2022-11-27T00:52:03.692Z,99227.00
2022-11-27T00:54:31.347Z,99227.00
2022-11-27T00:56:58.982Z,99238.00
2022-11-27T00:59:26.737Z,99243.00
2022-11-27T01:01:55.837Z,99246.00
2022-11-27T01:04:23.643Z,99241.00
2022-11-27T01:06:51.333Z,99242.00
2022-11-27T01:09:18.977Z,99239.00
2022-11-27T01:11:46.654Z,99232.00
2022-11-27T01:14:16.559Z,99230.00
2022-11-27T01:16:44.485Z,99228.00
2022-11-27T01:19:15.482Z,99222.00
2022-11-27T01:21:43.380Z,99225.00
2022-11-27T01:24:12.908Z,99218.00
2022-11-27T01:26:40.860Z,99219.00
2022-11-27T01:29:08.511Z,99215.00
2022-11-27T01:31:36.599Z,99222.00
2022-11-27T01:34:06.200Z,99219.00
2022-11-27T01:36:36.260Z,99220.00
2022-11-27T01:39:04.997Z,99222.00
2022-11-27T01:41:34.313Z,99209.00
2022-11-27T01:44:04.473Z,99221.00
2022-11-27T01:46:36.682Z,99208.00
2022-11-27T01:49:22.207Z,99214.00
2022-11-27T01:51:55.656Z,99197.00
2022-11-27T01:54:25.936Z,99198.00
2022-11-27T01:57:00.300Z,99200.00
2022-11-27T01:59:28.174Z,99189.00
2022-11-27T02:01:56.193Z,99186.00
2022-11-27T02:04:23.899Z,99182.00
2022-11-27T02:06:52.898Z,99185.00
2022-11-27T02:09:20.599Z,99183.00
2022-11-27T02:11:58.379Z,99179.00
2022-11-27T02:14:33.946Z,99182.00
2022-11-27T02:17:10.147Z,99178.00
2022-11-27T02:19:56.622Z,99175.00
2022-11-27T02:22:40.550Z,99165.00
2022-11-27T02:25:14.637Z,99162.00
2022-11-27T02:27:57.598Z,99159.00
2022-11-27T02:30:26.801Z,99164.00
2022-11-27T02:32:58.382Z,99162.00
2022-11-27T02:35:31.307Z,99161.00
2022-11-27T02:38:03.649Z,99168.00
2022-11-27T02:40:35.463Z,99169.00
2022-11-27T02:43:07.788Z,99164.00
2022-11-27T02:45:40.636Z,99167.00
2022-11-27T02:48:10.356Z,99163.00
2022-11-27T02:50:40.390Z,99156.00
2022-11-27T02:53:12.137Z,99157.00
2022-11-27T02:55:42.276Z,99147.00
2022-11-27T02:58:14.290Z,99148.00
2022-11-27T03:00:45.809Z,99141.00
2022-11-27T03:03:15.611Z,99136.00
2022-11-27T03:05:47.222Z,99144.00
2022-11-27T03:08:22.601Z,99140.00
2022-11-27T03:10:57.564Z,99128.00
2022-11-27T03:13:25.680Z,99113.00
2022-11-27T03:16:02.736Z,99111.00
2022-11-27T03:18:39.852Z,99106.00
2022-11-27T03:21:17.362Z,99112.00
2022-11-27T03:23:45.193Z,99101.00
2022-11-27T03:26:12.916Z,99105.00
2022-11-27T03:28:41.909Z,99100.00
2022-11-27T03:31:11.231Z,99109.00
2022-11-27T03:33:39.957Z,99106.00
2022-11-27T03:36:14.017Z,99100.00
2022-11-27T03:38:42.382Z,99098.00
2022-11-27T03:41:19.638Z,99100.00
2022-11-27T03:43:57.758Z,99096.00
2022-11-27T03:46:35.012Z,99103.00
2022-11-27T03:49:09.381Z,99096.00
2022-11-27T03:51:42.837Z,99092.00
2022-11-27T03:54:17.401Z,99098.00
2022-11-27T03:56:50.424Z,99104.00
2022-11-27T03:59:21.800Z,99098.00
2022-11-27T04:01:51.026Z,99099.00
2022-11-27T04:04:18.911Z,99110.00
2022-11-27T04:06:46.672Z,99103.00
2022-11-27T04:09:14.433Z,99110.00
2022-11-27T04:11:42.141Z,99114.00
2022-11-27T04:14:09.999Z,99113.00
2022-11-27T04:16:37.881Z,99115.00
2022-11-27T04:19:06.965Z,99103.00
2022-11-27T04:21:34.605Z,99105.00
2022-11-27T04:24:02.257Z,99102.00
2022-11-27T04:26:29.946Z,99112.00
2022-11-27T04:28:57.631Z,99114.00
2022-11-27T04:31:25.397Z,99112.00
2022-11-27T04:33:53.083Z,99106.00
2022-11-27T04:36:22.140Z,99108.00
2022-11-27T04:38:49.780Z,99106.00
2022-11-27T04:41:17.619Z,99107.00
2022-11-27T04:43:45.291Z,99102.00
2022-11-27T04:46:12.976Z,99098.00
2022-11-27T04:48:40.675Z,99097.00
2022-11-27T04:51:08.483Z,99107.00
2022-11-27T04:53:37.586Z,99105.00
2022-11-27T04:56:05.812Z,99114.00
2022-11-27T04:58:33.464Z,99114.00
2022-11-27T05:01:01.192Z,99113.00
2022-11-27T05:03:29.380Z,99112.00
2022-11-27T05:05:57.587Z,99110.00
2022-11-27T05:08:25.586Z,99114.00
2022-11-27T05:11:02.304Z,99106.00
2022-11-27T05:13:30.010Z,99096.00
2022-11-27T05:15:58.340Z,99096.00
2022-11-27T05:18:26.260Z,99107.00
2022-11-27T05:20:58.928Z,99095.00
2022-11-27T05:23:27.358Z,99102.00
2022-11-27T05:25:55.563Z,99105.00
2022-11-27T05:28:26.780Z,99103.00
2022-11-27T05:30:55.524Z,99104.00
2022-11-27T05:33:23.339Z,99099.00
2022-11-27T05:35:50.997Z,99109.00
2022-11-27T05:38:18.680Z,99097.00
2022-11-27T05:40:46.349Z,99104.00
2022-11-27T05:43:13.976Z,99100.00
2022-11-27T05:45:43.024Z,99108.00
2022-11-27T05:48:10.831Z,99107.00
2022-11-27T05:50:38.516Z,99109.00
2022-11-27T05:53:06.179Z,99102.00
2022-11-27T05:55:33.876Z,99104.00
2022-11-27T05:58:01.536Z,99097.00
2022-11-27T06:00:29.227Z,99096.00
2022-11-27T06:02:58.397Z,99093.00
2022-11-27T06:05:26.189Z,99094.00
2022-11-27T06:07:53.922Z,99090.00
2022-11-27T06:10:21.804Z,99093.00
2022-11-27T06:12:49.541Z,99083.00
2022-11-27T06:15:17.436Z,99088.00
2022-11-27T06:17:45.168Z,99092.00
2022-11-27T06:20:14.564Z,99091.00
2022-11-27T06:22:42.316Z,99099.00
2022-11-27T06:25:10.704Z,99087.00
2022-11-27T06:27:38.714Z,99084.00
2022-11-27T06:30:07.959Z,99088.00
2022-11-27T06:32:36.145Z,99092.00
2022-11-27T06:35:03.830Z,99091.00
2022-11-27T06:37:32.920Z,99088.00
2022-11-27T06:40:00.922Z,99093.00
2022-11-27T06:42:29.924Z,99089.00
2022-11-27T06:44:57.620Z,99090.00
2022-11-27T06:47:25.513Z,99093.00
2022-11-27T06:49:53.226Z,99086.00
2022-11-27T06:52:21.031Z,99078.00
2022-11-27T06:54:50.032Z,99072.00
2022-11-27T06:57:17.736Z,99069.00
2022-11-27T06:59:45.503Z,99077.00
2022-11-27T07:02:15.256Z,99067.00
2022-11-27T07:04:43.057Z,99067.00
2022-11-27T07:07:10.894Z,99064.00
2022-11-27T07:09:38.783Z,99054.00
2022-11-27T07:12:08.571Z,99054.00
2022-11-27T07:14:36.236Z,99051.00
2022-11-27T07:17:03.930Z,99053.00
2022-11-27T07:19:31.756Z,99052.00
2022-11-27T07:21:59.435Z,99055.00
2022-11-27T07:24:27.121Z,99049.00
2022-11-27T07:26:54.904Z,99053.00
2022-11-27T07:29:24.104Z,99055.00
2022-11-27T07:31:52.341Z,99042.00
2022-11-27T07:34:21.843Z,99040.00
2022-11-27T07:36:49.785Z,99044.00
2022-11-27T07:39:33.878Z,99037.00
2022-11-27T07:42:36.331Z,99039.00
2022-11-27T07:44:54.634Z,99036.00
2022-11-27T07:47:22.337Z,99035.00
2022-11-27T07:49:49.984Z,99027.00
2022-11-27T07:52:17.660Z,99027.00
2022-11-27T07:54:45.339Z,99028.00
2022-11-27T07:57:13.037Z,99036.00
2022-11-27T07:59:46.966Z,99032.00
2022-11-27T08:02:17.006Z,99031.00
2022-11-27T08:04:44.999Z,99039.00
2022-11-27T08:07:12.945Z,99034.00
2022-11-27T08:09:40.973Z,99038.00
2022-11-27T08:12:08.873Z,99033.00
2022-11-27T08:14:36.591Z,99035.00
2022-11-27T08:17:04.481Z,99033.00
2022-11-27T08:19:33.577Z,99028.00
2022-11-27T08:22:01.228Z,99042.00
2022-11-27T08:24:28.934Z,99036.00
2022-11-27T08:26:56.570Z,99040.00
2022-11-27T08:29:24.241Z,99034.00
2022-11-27T08:31:51.938Z,99040.00
2022-11-27T08:34:19.697Z,99040.00
2022-11-27T08:36:48.741Z,99041.00
2022-11-27T08:39:16.472Z,99033.00
2022-11-27T08:41:44.205Z,99035.00
2022-11-27T08:44:11.951Z,99035.00
2022-11-27T08:46:39.863Z,99038.00
2022-11-27T08:49:07.576Z,99038.00
2022-11-27T08:51:35.208Z,99035.00
2022-11-27T08:54:07.196Z,99034.00
2022-11-27T08:56:36.067Z,99029.00
2022-11-27T08:59:04.448Z,99006.00
2022-11-27T09:01:33.370Z,99010.00
2022-11-27T09:04:01.508Z,99012.00
2022-11-27T09:06:31.192Z,99017.00
2022-11-27T09:08:59.683Z,99016.00
2022-11-27T09:11:31.152Z,99021.00
2022-11-27T09:13:59.921Z,99017.00
2022-11-27T09:16:28.129Z,99028.00
2022-11-27T09:18:56.034Z,99024.00
2022-11-27T09:21:27.129Z,99024.00
2022-11-27T09:23:55.785Z,99028.00
2022-11-27T09:26:25.487Z,99028.00
2022-11-27T09:28:55.378Z,99018.00
2022-11-27T09:31:23.845Z,99022.00
2022-11-27T09:33:51.557Z,99026.00
2022-11-27T09:36:21.360Z,99016.00
2022-11-27T09:38:50.407Z,99005.00
2022-11-27T09:41:36.689Z,99006.00
2022-11-27T09:44:16.946Z,99013.00
2022-11-27T09:46:45.334Z,99000.00
2022-11-27T09:49:18.493Z,99000.00
2022-11-27T09:51:53.005Z,98999.00
2022-11-27T09:54:26.892Z,98996.00
2022-11-27T09:56:56.935Z,98984.00
2022-11-27T09:59:33.318Z,98972.00
2022-11-27T10:02:01.139Z,98976.00
2022-11-27T10:04:44.951Z,98984.00
2022-11-27T10:07:28.427Z,98986.00
2022-11-27T10:10:10.100Z,98987.00
2022-11-27T10:12:51.705Z,98984.00
2022-11-27T10:15:32.909Z,98980.00
2022-11-27T10:18:06.697Z,98974.00
2022-11-27T10:20:43.572Z,98972.00
2022-11-27T10:23:19.304Z,98975.00
2022-11-27T10:25:50.516Z,98978.00
2022-11-27T10:28:28.666Z,98958.00
2022-11-27T10:31:03.720Z,98957.00
2022-11-27T10:33:39.492Z,98959.00
2022-11-27T10:36:15.009Z,98955.00
2022-11-27T10:38:44.277Z,98957.00
2022-11-27T10:41:47.520Z,98952.00
2022-11-27T10:44:22.509Z,98948.00
2022-11-27T10:46:53.317Z,98944.00
2022-11-27T10:49:21.041Z,98941.00
2022-11-27T10:51:48.757Z,98928.00
2022-11-27T10:54:24.380Z,98914.00
2022-11-27T10:57:03.580Z,98917.00
2022-11-27T10:59:35.719Z,98920.00
2022-11-27T11:02:05.814Z,98909.00
2022-11-27T11:04:39.023Z,98905.00
2022-11-27T11:07:25.760Z,98906.00
2022-11-27T11:09:54.956Z,98893.00
2022-11-27T11:12:24.448Z,98891.00
2022-11-27T11:14:53.349Z,98879.00
2022-11-27T11:17:27.376Z,98869.00
2022-11-27T11:19:55.558Z,98869.00
2022-11-27T11:22:24.605Z,98872.00
2022-11-27T11:24:53.710Z,98870.00
2022-11-27T11:27:26.274Z,98865.00
2022-11-27T11:29:56.496Z,98864.00
2022-11-27T11:32:28.706Z,98860.00
2022-11-27T11:35:01.390Z,98861.00
2022-11-27T11:37:32.565Z,98851.00
2022-11-27T11:40:04.565Z,98843.00
2022-11-27T11:42:34.461Z,98844.00
2022-11-27T11:45:05.800Z,98834.00
2022-11-27T11:47:36.959Z,98841.00
2022-11-27T11:50:05.127Z,98844.00
2022-11-27T11:52:49.800Z,98845.00
2022-11-27T11:55:21.094Z,98827.00
2022-11-27T11:58:02.838Z,98827.00
2022-11-27T12:01:11.681Z,98828.00
2022-11-27T12:03:58.250Z,98822.00
2022-11-27T12:06:37.622Z,98817.00
2022-11-27T12:09:19.573Z,98816.00
2022-11-27T12:11:54.046Z,98812.00
2022-11-27T12:14:34.869Z,98811.00
2022-11-27T12:17:14.308Z,98796.00
2022-11-27T12:20:06.441Z,98792.00
2022-11-27T12:22:51.788Z,98791.00
2022-11-27T12:25:28.871Z,98785.00
2022-11-27T12:28:09.286Z,98775.00
2022-11-27T12:30:44.700Z,98767.00
2022-11-27T12:33:26.975Z,98771.00
2022-11-27T12:36:02.927Z,98763.00
2022-11-27T12:38:46.256Z,98768.00
2022-11-27T12:41:43.397Z,98760.00
2022-11-27T12:44:20.187Z,98762.00
2022-11-27T12:46:55.763Z,98761.00
2022-11-27T12:49:28.664Z,98763.00
2022-11-27T12:52:03.524Z,98756.00
2022-11-27T12:54:37.574Z,98757.00
2022-11-27T12:57:09.712Z,98759.00
2022-11-27T12:59:43.593Z,98753.00
2022-11-27T13:02:24.828Z,98746.00
2022-11-27T13:04:57.648Z,98741.00
2022-11-27T13:07:38.451Z,98743.00
2022-11-27T13:10:14.901Z,98744.00
2022-11-27T13:12:47.640Z,98739.00
2022-11-27T13:15:24.146Z,98743.00
2022-11-27T13:17:58.543Z,98749.00
2022-11-27T13:20:35.733Z,98748.00
2022-11-27T13:23:04.814Z,98744.00
2022-11-27T13:25:37.092Z,98743.00
2022-11-27T13:28:06.511Z,98741.00
2022-11-27T13:30:36.930Z,98735.00
2022-11-27T13:33:07.102Z,98736.00
2022-11-27T13:35:41.815Z,98728.00
2022-11-27T13:38:13.536Z,98737.00
2022-11-27T13:40:44.256Z,98725.00
2022-11-27T13:43:22.139Z,98716.00
2022-11-27T13:45:50.110Z,98711.00
2022-11-27T13:48:28.137Z,98710.00
2022-11-27T13:50:56.080Z,98704.00
2022-11-27T13:53:36.798Z,98696.00
2022-11-27T13:56:06.078Z,98691.00
2022-11-27T13:58:36.028Z,98696.00
2022-11-27T14:01:17.204Z,98694.00
2022-11-27T14:03:45.744Z,98696.00
2022-11-27T14:06:19.671Z,98693.00
2022-11-27T14:08:55.273Z,98687.00
2022-11-27T14:11:35.865Z,98685.00
2022-11-27T14:14:12.352Z,98687.00
2022-11-27T14:16:40.640Z,98682.00
2022-11-27T14:19:29.385Z,98676.00
2022-11-27T14:21:59.869Z,98677.00
2022-11-27T14:24:40.725Z,98681.00
2022-11-27T14:27:17.598Z,98679.00
2022-11-27T14:29:46.188Z,98686.00
2022-11-27T14:32:15.755Z,98677.00
2022-11-27T14:34:44.202Z,98672.00
2022-11-27T14:37:23.245Z,98664.00
2022-11-27T14:39:52.530Z,98670.00
2022-11-27T14:42:27.968Z,98670.00
2022-11-27T14:45:04.366Z,98664.00
2022-11-27T14:47:33.322Z,98654.00
2022-11-27T14:50:01.981Z,98648.00
2022-11-27T14:52:30.448Z,98645.00
2022-11-27T14:55:00.170Z,98643.00
2022-11-27T14:57:29.962Z,98644.00
2022-11-27T15:00:17.093Z,98645.00
2022-11-27T15:02:45.076Z,98641.00
2022-11-27T15:05:21.751Z,98639.00
2022-11-27T15:07:51.191Z,98629.00
2022-11-27T15:10:29.017Z,98623.00
2022-11-27T15:12:57.538Z,98618.00
2022-11-27T15:15:27.489Z,98612.00
2022-11-27T15:17:58.646Z,98604.00
2022-11-27T15:20:29.797Z,98604.00
2022-11-27T15:22:59.742Z,98601.00
2022-11-27T15:25:37.080Z,98605.00
2022-11-27T15:28:26.065Z,98605.00
2022-11-27T15:30:53.964Z,98602.00
2022-11-27T15:33:30.715Z,98599.00
2022-11-27T15:36:16.330Z,98595.00
2022-11-27T15:38:46.187Z,98589.00
2022-11-27T15:41:24.252Z,98590.00
2022-11-27T15:43:52.635Z,98588.00
2022-11-27T15:46:26.068Z,98589.00
2022-11-27T15:48:53.760Z,98588.00
2022-11-27T15:51:21.458Z,98581.00
2022-11-27T15:53:49.388Z,98583.00
2022-11-27T15:56:17.722Z,98597.00
2022-11-27T15:58:46.889Z,98589.00
2022-11-27T16:01:14.631Z,98585.00
2022-11-27T16:03:42.270Z,98573.00
2022-11-27T16:06:10.446Z,98562.00
2022-11-27T16:08:38.081Z,98557.00
2022-11-27T16:11:07.887Z,98549.00
2022-11-27T16:13:35.613Z,98546.00
2022-11-27T16:16:05.600Z,98536.00
2022-11-27T16:18:34.358Z,98525.00
2022-11-27T16:21:05.668Z,98524.00
2022-11-27T16:23:34.210Z,98525.00
2022-11-27T16:26:01.961Z,98515.00
2022-11-27T16:28:31.139Z,98495.00
2022-11-27T16:31:00.752Z,98496.00
2022-11-27T16:33:30.846Z,98488.00
2022-11-27T16:36:05.602Z,98481.00
2022-11-27T16:38:33.399Z,98480.00
2022-11-27T16:41:01.748Z,98475.00
2022-11-27T16:43:29.911Z,98473.00
2022-11-27T16:46:05.341Z,98456.00
2022-11-27T16:48:35.563Z,98456.00
2022-11-27T16:51:05.129Z,98451.00
2022-11-27T16:53:32.849Z,98450.00
2022-11-27T16:56:00.743Z,98447.00
2022-11-27T16:58:28.408Z,98442.00
2022-11-27T17:00:56.289Z,98434.00
2022-11-27T17:03:23.971Z,98446.00
2022-11-27T17:05:52.966Z,98438.00
2022-11-27T17:08:20.680Z,98448.00
2022-11-27T17:10:48.328Z,98440.00
2022-11-27T17:13:15.976Z,98435.00
2022-11-27T17:15:43.629Z,98438.00
2022-11-27T17:18:11.410Z,98439.00
2022-11-27T17:20:39.162Z,98449.00
2022-11-27T17:23:08.179Z,98440.00
2022-11-27T17:25:35.803Z,98445.00
2022-11-27T17:28:04.635Z,98447.00
2022-11-27T17:30:36.448Z,98457.00
2022-11-27T17:33:06.858Z,98445.00
2022-11-27T17:35:34.562Z,98447.00
2022-11-27T17:38:02.242Z,98455.00
2022-11-27T17:40:32.707Z,98453.00
2022-11-27T17:43:00.489Z,98446.00
2022-11-27T17:45:28.220Z,98451.00
2022-11-27T17:47:55.870Z,98443.00
2022-11-27T17:50:23.535Z,98445.00
2022-11-27T17:52:53.735Z,98443.00
2022-11-27T17:55:21.435Z,98440.00
2022-11-27T17:57:50.492Z,98440.00
2022-11-27T18:00:18.728Z,98440.00
2022-11-27T18:02:46.411Z,98433.00
2022-11-27T18:05:14.068Z,98436.00
2022-11-27T18:07:41.789Z,98442.00
2022-11-27T18:10:10.295Z,98435.00
2022-11-27T18:12:38.016Z,98446.00
2022-11-27T18:15:09.564Z,98437.00
2022-11-27T18:17:37.319Z,98440.00
2022-11-27T18:20:06.304Z,98429.00
2022-11-27T18:22:34.315Z,98418.00
2022-11-27T18:25:02.073Z,98410.00
2022-11-27T18:27:29.769Z,98398.00
2022-11-27T18:29:57.437Z,98395.00
2022-11-27T18:32:26.709Z,98381.00
2022-11-27T18:34:54.791Z,98385.00
2022-11-27T18:37:23.472Z,98380.00
2022-11-27T18:39:51.487Z,98369.00
2022-11-27T18:42:19.230Z,98371.00
2022-11-27T18:44:46.909Z,98357.00
2022-11-27T18:47:14.748Z,98356.00
2022-11-27T18:49:43.985Z,98362.00
2022-11-27T18:52:12.294Z,98352.00
2022-11-27T18:54:40.017Z,98351.00
2022-11-27T18:57:07.804Z,98347.00
2022-11-27T18:59:35.952Z,98335.00
2022-11-27T19:02:05.215Z,98332.00
2022-11-27T19:04:35.978Z,98321.00
2022-11-27T19:07:05.378Z,98321.00
2022-11-27T19:09:33.103Z,98323.00
2022-11-27T19:12:00.809Z,98327.00
2022-11-27T19:14:28.449Z,98327.00
2022-11-27T19:16:56.444Z,98325.00
2022-11-27T19:19:53.252Z,98313.00
2022-11-27T19:22:16.853Z,98320.00
2022-11-27T19:24:44.518Z,98310.00
2022-11-27T19:27:12.245Z,98322.00
2022-11-27T19:29:40.213Z,98323.00
2022-11-27T19:32:08.143Z,98323.00
2022-11-27T19:34:36.308Z,98320.00
2022-11-27T19:37:04.288Z,98326.00
2022-11-27T19:39:33.341Z,98318.00
2022-11-27T19:42:01.004Z,98318.00
2022-11-27T19:44:28.794Z,98312.00
2022-11-27T19:46:56.434Z,98305.00
2022-11-27T19:49:24.138Z,98296.00
2022-11-27T19:51:52.085Z,98302.00
2022-11-27T19:54:21.748Z,98299.00
2022-11-27T19:56:52.035Z,98297.00
2022-11-27T19:59:25.512Z,98296.00
2022-11-27T20:01:53.785Z,98297.00
2022-11-27T20:04:21.700Z,98296.00
2022-11-27T20:06:52.577Z,98292.00
2022-11-27T20:09:20.449Z,98289.00
2022-11-27T20:11:48.419Z,98284.00
2022-11-27T20:14:19.462Z,98272.00
2022-11-27T20:16:47.271Z,98264.00
2022-11-27T20:19:15.384Z,98268.00
2022-11-27T20:21:43.391Z,98270.00
2022-11-27T20:24:11.665Z,98271.00
2022-11-27T20:26:42.762Z,98269.00
2022-11-27T20:29:12.074Z,98272.00
2022-11-27T20:31:44.628Z,98266.00
2022-11-27T20:34:17.926Z,98262.00
2022-11-27T20:36:45.787Z,98260.00
2022-11-27T20:39:19.286Z,98258.00
2022-11-27T20:41:49.825Z,98259.00
2022-11-27T20:44:18.300Z,98254.00
2022-11-27T20:46:47.479Z,98250.00
2022-11-27T20:49:16.338Z,98253.00
2022-11-27T20:51:44.255Z,98250.00
2022-11-27T20:54:12.703Z,98244.00
2022-11-27T20:56:41.176Z,98236.00
2022-11-27T20:59:08.842Z,98229.00
2022-11-27T21:01:37.508Z,98225.00
2022-11-27T21:04:09.499Z,98228.00
2022-11-27T21:06:43.520Z,98218.00
2022-11-27T21:09:13.791Z,98214.00
2022-11-27T21:11:42.564Z,98212.00
2022-11-27T21:14:12.688Z,98206.00
2022-11-27T21:16:43.032Z,98208.00
2022-11-27T21:19:15.932Z,98209.00
2022-11-27T21:21:43.671Z,98206.00
2022-11-27T21:24:12.019Z,98206.00
2022-11-27T21:26:41.539Z,98201.00
2022-11-27T21:29:10.394Z,98206.00
2022-11-27T21:31:41.621Z,98203.00
2022-11-27T21:34:13.307Z,98207.00
2022-11-27T21:36:41.184Z,98201.00
2022-11-27T21:39:10.172Z,98200.00
2022-11-27T21:41:41.116Z,98201.00
2022-11-27T21:44:08.967Z,98201.00
2022-11-27T21:46:37.535Z,98190.00
2022-11-27T21:49:05.236Z,98193.00
2022-11-27T21:51:34.350Z,98197.00
2022-11-27T21:54:02.005Z,98189.00
2022-11-27T21:56:32.279Z,98190.00
2022-11-27T21:58:59.962Z,98183.00
2022-11-27T22:01:27.786Z,98185.00
2022-11-27T22:03:56.521Z,98177.00
2022-11-27T22:06:26.400Z,98166.00
2022-11-27T22:08:59.489Z,98162.00
2022-11-27T22:11:30.403Z,98162.00
2022-11-27T22:13:58.918Z,98163.00
2022-11-27T22:16:29.061Z,98156.00
2022-11-27T22:18:58.255Z,98156.00
2022-11-27T22:21:27.257Z,98154.00
2022-11-27T22:23:56.556Z,98143.00
2022-11-27T22:26:25.678Z,98139.00
2022-11-27T22:28:53.637Z,98145.00
2022-11-27T22:31:23.661Z,98139.00
2022-11-27T22:33:51.760Z,98141.00
2022-11-27T22:36:22.807Z,98145.00
2022-11-27T22:38:51.851Z,98135.00
2022-11-27T22:41:22.079Z,98137.00
2022-11-27T22:43:50.011Z,98141.00
2022-11-27T22:46:20.199Z,98144.00
2022-11-27T22:48:48.389Z,98136.00
2022-11-27T22:51:16.057Z,98138.00
2022-11-27T22:53:43.859Z,98143.00
2022-11-27T22:56:13.181Z,98129.00
2022-11-27T22:58:42.672Z,98131.00
2022-11-27T23:01:14.930Z,98127.00
2022-11-27T23:03:42.960Z,98122.00
2022-11-27T23:06:12.767Z,98123.00
2022-11-27T23:08:41.284Z,98115.00
2022-11-27T23:11:10.209Z,98118.00
2022-11-27T23:13:37.928Z,98111.00
2022-11-27T23:16:08.446Z,98107.00
2022-11-27T23:18:38.414Z,98108.00
2022-11-27T23:21:07.579Z,98103.00
2022-11-27T23:23:35.830Z,98095.00
2022-11-27T23:26:04.898Z,98090.00
2022-11-27T23:28:32.668Z,98086.00
2022-11-27T23:31:28.201Z,98086.00
2022-11-27T23:33:54.134Z,98087.00
2022-11-27T23:36:21.932Z,98089.00
2022-11-27T23:38:49.683Z,98088.00
2022-11-27T23:41:19.639Z,98088.00
2022-11-27T23:43:47.654Z,98082.00
2022-11-27T23:46:18.590Z,98079.00
2022-11-27T23:48:46.466Z,98078.00
2022-11-27T23:51:17.785Z,98088.00
2022-11-27T23:53:46.007Z,98087.00
2022-11-27T23:56:16.029Z,98090.00
2022-11-27T23:58:47.220Z,98093.00
